الصفحة الرئيسية
METAR-TAF:

METAR-TAF

مطار :

بندر لنجة, إيران

دائرة عرض: 26-35N, خط طول: 054-50E, ارتفاع: 14 متر

مراقبة الطقس الحالي

تاريخ ووقت الإصدار 42 دقيقة قبل الساعة 06:00UTC
ريح 4 عقدة من الشمال/الشمال الغربي
درجة الحرارة 35°درجة مئوية
الرطوبة 44%
ضغط 1005 hPa
الرؤية: 3000 متر
العجاج

METAR: OIBL 010600Z 34004KT 3000 HZ NSC 35/21 Q1005

زمن: 11:12 (06:42 UTC)


TAF: مفقودة

أرصاد الطقس والتوقعات من أكثر من 4000 مطار (تقارير الطقس للمطار METAR والتنبؤ بالطقس بالمطارTAF).

المحطات المتاحة هي النقط الصفراء والحمراء على الخريطة.

حرك المؤشر فوق النقطة لمعرفة اسم المحطة.

ثم انقر لمعرفة أرصاد وتوقعات الطقس.

لتغيير الخارطة: اضغط على الأزرار الخضراء مع رمز الصليب الأسود للتكبير. على الزر الأخضر مع شرطة للتصغير، أو على الأسهم الخضراء للخرائط المجاورة.


METAR-TAF: